createdAt,value
2024-03-16T00:04:55.873Z,6.22
2024-03-16T00:21:34.669Z,7.85
2024-03-16T00:27:01.490Z,8.23
2024-03-16T00:32:21.750Z,9.30
2024-03-16T00:37:26.812Z,11.27
2024-03-16T00:42:29.221Z,9.05
2024-03-16T00:47:37.027Z,10.18
2024-03-16T00:52:47.440Z,9.60
2024-03-16T00:57:56.579Z,10.13
2024-03-16T01:03:12.241Z,8.90
2024-03-16T01:08:29.786Z,9.80
2024-03-16T01:13:32.787Z,10.85
2024-03-16T01:19:05.187Z,11.10
2024-03-16T01:24:16.903Z,10.27
2024-03-16T01:29:27.882Z,9.95
2024-03-16T01:34:32.241Z,9.35
2024-03-16T01:39:47.329Z,11.02
2024-03-16T01:50:43.183Z,10.05
2024-03-16T01:55:51.424Z,10.45
2024-03-16T02:05:38.881Z,11.38
2024-03-16T02:10:58.105Z,11.13
2024-03-16T02:16:04.149Z,11.93
2024-03-16T02:21:20.656Z,12.57
2024-03-16T02:26:26.157Z,11.30
2024-03-16T02:31:43.883Z,9.98
2024-03-16T02:36:53.680Z,10.35
2024-03-16T02:42:04.375Z,9.60
2024-03-16T02:47:10.156Z,9.77
2024-03-16T02:52:14.282Z,11.18
2024-03-16T02:57:27.256Z,10.70
2024-03-16T03:02:45.006Z,8.88
2024-03-16T03:07:51.063Z,10.40
2024-03-16T03:13:03.403Z,11.35
2024-03-16T03:23:41.236Z,8.32
2024-03-16T03:29:27.871Z,9.80
2024-03-16T03:34:34.233Z,9.50
2024-03-16T03:45:53.592Z,11.20
2024-03-16T03:51:02.463Z,9.25
2024-03-16T03:56:12.848Z,10.55
2024-03-16T04:01:15.415Z,10.35
2024-03-16T04:06:50.855Z,9.23
2024-03-16T04:11:53.189Z,8.40
2024-03-16T04:16:58.434Z,9.63
2024-03-16T04:22:13.619Z,10.07
2024-03-16T04:27:21.711Z,10.63
2024-03-16T04:32:29.696Z,9.30
2024-03-16T04:37:40.585Z,8.93
2024-03-16T04:42:47.154Z,9.07
2024-03-16T04:48:06.120Z,8.05
2024-03-16T04:53:25.729Z,7.80
2024-03-16T04:58:31.536Z,8.27
2024-03-16T05:03:34.141Z,8.57
2024-03-16T05:08:37.214Z,8.52
2024-03-16T05:13:43.761Z,7.43
2024-03-16T05:18:46.141Z,8.52
2024-03-16T05:23:48.656Z,8.65
2024-03-16T05:28:51.222Z,9.20
2024-03-16T05:33:53.557Z,7.55
2024-03-16T05:43:57.859Z,5.72
2024-03-16T05:49:00.300Z,6.60
2024-03-16T05:59:19.728Z,7.22
2024-03-16T06:04:30.337Z,8.13
2024-03-16T06:09:41.186Z,7.18
2024-03-16T06:14:45.708Z,6.10
2024-03-16T06:19:51.274Z,6.53
2024-03-16T06:24:53.921Z,7.35
2024-03-16T06:29:57.733Z,6.80
2024-03-16T06:34:59.925Z,7.05
2024-03-16T06:45:05.979Z,5.65
2024-03-16T06:50:14.477Z,5.68
2024-03-16T06:55:24.504Z,6.35
2024-03-16T07:00:29.574Z,6.95
2024-03-16T07:05:34.131Z,7.10
2024-03-16T07:10:36.712Z,7.93
2024-03-16T07:15:40.697Z,6.65
2024-03-16T07:20:43.323Z,8.73
2024-03-16T07:25:50.905Z,7.20
2024-03-16T07:30:59.316Z,6.05
2024-03-16T07:36:02.308Z,6.18
2024-03-16T07:41:07.898Z,6.15
2024-03-16T07:46:10.189Z,6.00
2024-03-16T07:51:15.297Z,6.05
2024-03-16T07:56:19.787Z,4.80
2024-03-16T08:01:24.812Z,5.80
2024-03-16T08:06:27.372Z,6.13
2024-03-16T08:11:34.532Z,5.30
2024-03-16T08:16:39.910Z,6.00
2024-03-16T08:21:42.229Z,5.93
2024-03-16T08:26:44.974Z,6.20
2024-03-16T08:31:49.439Z,6.60
2024-03-16T08:36:57.013Z,6.82
2024-03-16T08:42:01.236Z,6.00
2024-03-16T08:47:03.460Z,5.60
2024-03-16T08:52:05.895Z,5.30
2024-03-16T08:57:14.398Z,5.60
2024-03-16T09:02:22.519Z,5.32
2024-03-16T09:07:25.145Z,5.75
2024-03-16T09:12:30.305Z,6.45
2024-03-16T09:17:34.189Z,7.85
2024-03-16T09:22:39.131Z,8.38
2024-03-16T09:27:44.781Z,8.10
2024-03-16T09:32:47.129Z,7.45
2024-03-16T09:37:49.495Z,6.90
